Cedar Hill, Mississippi
Current Conditions -  °F | °C
As of 6:15 AM on Sunday 23 Nov 2014 (Local Time) from KGNF Reporting Station
Haze Haze  
Wind Chill: 55°   Ceiling: 600
Heat Index: 55°   Visibility: 2mi
Dew Point: 55°   Wind: 0mph
Humidity: 100%   Direction: NA
Pressure: 29.78"   Gusts: NA
Location:  33.6702°N, 89.6861°W
Report Text: KGNF 231215Z AUTO 00000KT 2SM BR OVC006 13/13 A2978 RMK AO2
Loading
Personal Weather Stations






























Interactive Weather Map New forecast layout! Learn more

10-Day Weather Forecast

Advertisements
Track Severe Weather on mobile